PWSweather.com
Personal Weather Stations
Station Observations
METEOC500
Santo Antonio, FunchalPT 2020

Santo AntonioFunchalPT 2020

Lat: 32.678227, Lon: -16.945054

Elevation: 1669.94751

Station Type: WH Series

High Low Average
Temperature 72.7°F22.6°C 59.9°F15.5°C 65.9°F18.8°C
Dew Point 61.9°F16.6°C 53.8°F12.1°C 57.9°F14.4°C
Winds 10.1 mph 16.3 kmh Calm Calm 5.0 mph WSW8.0 kmh WSW
Wind Gusts 17.4 mph28.0 kmh 2.5 mph4.0 kmh 10.0 mph16.1 kmh
Humidity 86% 64% 76%
Pressure 30.12 in1020.0 mb 30.07 in1018.3 mb -
Precipitation 0.00 in0.0 mm - -
Hour Temp Dew Point Humidity Winds Wind Gusts Pressure Precip Precip Rate Daily Precip Total
12:14 AM 64.8°F18.2°C 57.7°F14.3°C 78% 4.7 mph N7.6 kmh N 7.6 mph12.2 kmh 30.11 in1019.6 mb 0.00 in0.0 mm 0.00 in0.0 mm 0.00 in0.0 mm
12:29 AM 64.2°F17.9°C 57.2°F14.0°C 78% 4.5 mph NNW7.2 kmh NNW 7.6 mph12.2 kmh 30.11 in1019.6 mb 0.00 in0.0 mm 0.00 in0.0 mm 0.00 in0.0 mm
12:44 AM 63.3°F17.4°C 56.7°F13.7°C 79% 7.2 mph NNW11.6 kmh NNW 12.5 mph20.1 kmh 30.11 in1019.6 mb 0.00 in0.0 mm 0.00 in0.0 mm 0.00 in0.0 mm
12:59 AM 62.6°F17.0°C 55.9°F13.3°C 79% 7.8 mph N12.6 kmh N 12.5 mph20.1 kmh 30.11 in1019.6 mb 0.00 in0.0 mm 0.00 in0.0 mm 0.00 in0.0 mm
01:14 AM 62.1°F16.7°C 55.8°F13.2°C 80% 7.2 mph NNW11.6 kmh NNW 12.5 mph20.1 kmh 30.11 in1019.6 mb 0.00 in0.0 mm 0.00 in0.0 mm 0.00 in0.0 mm
01:30 AM 61.7°F16.5°C 55.4°F13.0°C 80% 9.6 mph NNW15.4 kmh NNW 12.5 mph20.1 kmh 30.11 in1019.6 mb 0.00 in0.0 mm 0.00 in0.0 mm 0.00 in0.0 mm
01:45 AM 61.5°F16.4°C 54.9°F12.7°C 79% 8.5 mph NNW13.7 kmh NNW 12.5 mph20.1 kmh 30.10 in1019.3 mb 0.00 in0.0 mm 0.00 in0.0 mm 0.00 in0.0 mm
02:00 AM 61.5°F16.4°C 55.2°F12.9°C 80% 8.1 mph NNW13.0 kmh NNW 15.0 mph24.1 kmh 30.10 in1019.3 mb 0.00 in0.0 mm 0.00 in0.0 mm 0.00 in0.0 mm
02:15 AM 61.7°F16.5°C 55.4°F13.0°C 80% 7.2 mph NNW11.6 kmh NNW 12.5 mph20.1 kmh 30.10 in1019.3 mb 0.00 in0.0 mm 0.00 in0.0 mm 0.00 in0.0 mm
02:30 AM 61.9°F16.6°C 55.9°F13.3°C 81% 6.9 mph NNW11.1 kmh NNW 10.1 mph16.3 kmh 30.10 in1019.3 mb 0.00 in0.0 mm 0.00 in0.0 mm 0.00 in0.0 mm
02:45 AM 61.9°F16.6°C 55.9°F13.3°C 81% 4.9 mph NNW7.9 kmh NNW 10.1 mph16.3 kmh 30.10 in1019.3 mb 0.00 in0.0 mm 0.00 in0.0 mm 0.00 in0.0 mm
03:00 AM 62.2°F16.8°C 56.3°F13.5°C 81% 5.4 mph NNW8.7 kmh NNW 10.1 mph16.3 kmh 30.09 in1019.0 mb 0.00 in0.0 mm 0.00 in0.0 mm 0.00 in0.0 mm
03:15 AM 62.2°F16.8°C 56.7°F13.7°C 82% 6.5 mph NNW10.5 kmh NNW 10.1 mph16.3 kmh 30.09 in1019.0 mb 0.00 in0.0 mm 0.00 in0.0 mm 0.00 in0.0 mm
03:30 AM 61.9°F16.6°C 55.9°F13.3°C 81% 4.0 mph NNW6.4 kmh NNW 10.1 mph16.3 kmh 30.09 in1019.0 mb 0.00 in0.0 mm 0.00 in0.0 mm 0.00 in0.0 mm
03:45 AM 61.7°F16.5°C 56.1°F13.4°C 82% 7.8 mph N12.6 kmh N 10.1 mph16.3 kmh 30.09 in1019.0 mb 0.00 in0.0 mm 0.00 in0.0 mm 0.00 in0.0 mm
04:00 AM 61.5°F16.4°C 56.3°F13.5°C 83% 8.1 mph NNW13.0 kmh NNW 12.5 mph20.1 kmh 30.09 in1019.0 mb 0.00 in0.0 mm 0.00 in0.0 mm 0.00 in0.0 mm
04:15 AM 61.3°F16.3°C 56.1°F13.4°C 83% 6.5 mph NNW10.5 kmh NNW 10.1 mph16.3 kmh 30.08 in1018.6 mb 0.00 in0.0 mm 0.00 in0.0 mm 0.00 in0.0 mm
04:30 AM 61.3°F16.3°C 55.8°F13.2°C 82% 6.9 mph N11.1 kmh N 10.1 mph16.3 kmh 30.08 in1018.6 mb 0.00 in0.0 mm 0.00 in0.0 mm 0.00 in0.0 mm
04:45 AM 61.3°F16.3°C 55.8°F13.2°C 82% 6.5 mph NNW10.5 kmh NNW 10.1 mph16.3 kmh 30.09 in1019.0 mb 0.00 in0.0 mm 0.00 in0.0 mm 0.00 in0.0 mm
05:00 AM 61.2°F16.2°C 55.6°F13.1°C 82% 6.9 mph NNW11.1 kmh NNW 10.1 mph16.3 kmh 30.09 in1019.0 mb 0.00 in0.0 mm 0.00 in0.0 mm 0.00 in0.0 mm
05:15 AM 60.6°F15.9°C 55.4°F13.0°C 83% 6.0 mph N9.7 kmh N 10.1 mph16.3 kmh 30.09 in1019.0 mb 0.00 in0.0 mm 0.00 in0.0 mm 0.00 in0.0 mm
05:30 AM 60.4°F15.8°C 55.2°F12.9°C 83% 5.4 mph NNW8.7 kmh NNW 10.1 mph16.3 kmh 30.09 in1019.0 mb 0.00 in0.0 mm 0.00 in0.0 mm 0.00 in0.0 mm
05:46 AM 60.3°F15.7°C 54.7°F12.6°C 82% 6.5 mph NNW10.5 kmh NNW 10.1 mph16.3 kmh 30.10 in1019.3 mb 0.00 in0.0 mm 0.00 in0.0 mm 0.00 in0.0 mm
06:01 AM 60.3°F15.7°C 54.7°F12.6°C 82% 10.1 mph NW16.3 kmh NW 12.5 mph20.1 kmh 30.09 in1019.0 mb 0.00 in0.0 mm 0.00 in0.0 mm 0.00 in0.0 mm
06:16 AM 60.4°F15.8°C 54.3°F12.4°C 80% 7.6 mph NNW12.2 kmh NNW 12.5 mph20.1 kmh 30.09 in1019.0 mb 0.00 in0.0 mm 0.00 in0.0 mm 0.00 in0.0 mm
06:31 AM 60.3°F15.7°C 54.1°F12.3°C 80% 6.9 mph N11.1 kmh N 12.5 mph20.1 kmh 30.09 in1019.0 mb 0.00 in0.0 mm 0.00 in0.0 mm 0.00 in0.0 mm
06:46 AM 60.1°F15.6°C 54.0°F12.2°C 80% 6.0 mph NNW9.7 kmh NNW 12.5 mph20.1 kmh 30.09 in1019.0 mb 0.00 in0.0 mm 0.00 in0.0 mm 0.00 in0.0 mm
07:01 AM 59.9°F15.5°C 53.8°F12.1°C 80% 7.2 mph N11.6 kmh N 10.1 mph16.3 kmh 30.09 in1019.0 mb 0.00 in0.0 mm 0.00 in0.0 mm 0.00 in0.0 mm
07:16 AM 60.3°F15.7°C 53.8°F12.1°C 79% 7.6 mph N12.2 kmh N 12.5 mph20.1 kmh 30.10 in1019.3 mb 0.00 in0.0 mm 0.00 in0.0 mm 0.00 in0.0 mm
07:31 AM 60.6°F15.9°C 54.1°F12.3°C 79% 4.9 mph N7.9 kmh N 10.1 mph16.3 kmh 30.10 in1019.3 mb 0.00 in0.0 mm 0.00 in0.0 mm 0.00 in0.0 mm
07:46 AM 61.0°F16.1°C 54.5°F12.5°C 79% 6.3 mph N10.1 kmh N 10.1 mph16.3 kmh 30.09 in1019.0 mb 0.00 in0.0 mm 0.00 in0.0 mm 0.00 in0.0 mm
08:01 AM 61.3°F16.3°C 54.1°F12.3°C 77% 4.7 mph N7.6 kmh N 10.1 mph16.3 kmh 30.09 in1019.0 mb 0.00 in0.0 mm 0.00 in0.0 mm 0.00 in0.0 mm
08:16 AM 61.9°F16.6°C 54.7°F12.6°C 77% 4.9 mph N7.9 kmh N 10.1 mph16.3 kmh 30.10 in1019.3 mb 0.00 in0.0 mm 0.00 in0.0 mm 0.00 in0.0 mm
08:31 AM 62.6°F17.0°C 54.9°F12.7°C 76% 5.6 mph N9.0 kmh N 10.1 mph16.3 kmh 30.10 in1019.3 mb 0.00 in0.0 mm 0.00 in0.0 mm 0.00 in0.0 mm
08:46 AM 63.3°F17.4°C 54.9°F12.7°C 74% 4.5 mph NNW7.2 kmh NNW 10.1 mph16.3 kmh 30.10 in1019.3 mb 0.00 in0.0 mm 0.00 in0.0 mm 0.00 in0.0 mm
09:01 AM 64.8°F18.2°C 54.3°F12.4°C 69% 0.2 mph N0.3 kmh N 4.9 mph7.9 kmh 30.11 in1019.6 mb 0.00 in0.0 mm 0.00 in0.0 mm 0.00 in0.0 mm
09:16 AM 67.1°F19.5°C 56.7°F13.7°C 69% 1.8 mph E2.9 kmh E 10.1 mph16.3 kmh 30.10 in1019.3 mb 0.00 in0.0 mm 0.00 in0.0 mm 0.00 in0.0 mm
09:31 AM 69.6°F20.9°C 56.8°F13.8°C 64% 2.9 mph SE4.7 kmh SE 7.6 mph12.2 kmh 30.11 in1019.6 mb 0.00 in0.0 mm 0.00 in0.0 mm 0.00 in0.0 mm
09:46 AM 71.1°F21.7°C 59.2°F15.1°C 66% 5.6 mph SSE9.0 kmh SSE 10.1 mph16.3 kmh 30.11 in1019.6 mb 0.00 in0.0 mm 0.00 in0.0 mm 0.00 in0.0 mm
10:02 AM 71.1°F21.7°C 58.6°F14.8°C 65% 1.8 mph SSW2.9 kmh SSW 12.5 mph20.1 kmh 30.11 in1019.6 mb 0.00 in0.0 mm 0.00 in0.0 mm 0.00 in0.0 mm
10:17 AM 70.5°F21.4°C 59.0°F15.0°C 67% 3.4 mph ESE5.5 kmh ESE 12.5 mph20.1 kmh 30.11 in1019.6 mb 0.00 in0.0 mm 0.00 in0.0 mm 0.00 in0.0 mm
10:32 AM 70.7°F21.5°C 59.2°F15.1°C 67% 5.4 mph SSE8.7 kmh SSE 12.5 mph20.1 kmh 30.11 in1019.6 mb 0.00 in0.0 mm 0.00 in0.0 mm 0.00 in0.0 mm
10:47 AM 70.7°F21.5°C 59.2°F15.1°C 67% 0.2 mph S0.3 kmh S 10.1 mph16.3 kmh 30.11 in1019.6 mb 0.00 in0.0 mm 0.00 in0.0 mm 0.00 in0.0 mm
11:02 AM 70.5°F21.4°C 59.4°F15.2°C 68% 1.6 mph S2.6 kmh S 12.5 mph20.1 kmh 30.12 in1020.0 mb 0.00 in0.0 mm 0.00 in0.0 mm 0.00 in0.0 mm
11:17 AM 71.8°F22.1°C 59.4°F15.2°C 65% 4.0 mph S6.4 kmh S 12.5 mph20.1 kmh 30.12 in1020.0 mb 0.00 in0.0 mm 0.00 in0.0 mm 0.00 in0.0 mm
11:32 AM 72.5°F22.5°C 59.5°F15.3°C 64% 6.0 mph SSE9.7 kmh SSE 15.0 mph24.1 kmh 30.11 in1019.6 mb 0.00 in0.0 mm 0.00 in0.0 mm 0.00 in0.0 mm
11:47 AM 71.8°F22.1°C 60.3°F15.7°C 67% 7.6 mph SE12.2 kmh SE 15.0 mph24.1 kmh 30.11 in1019.6 mb 0.00 in0.0 mm 0.00 in0.0 mm 0.00 in0.0 mm
12:02 PM 72.0°F22.2°C 59.5°F15.3°C 65% 4.9 mph SE7.9 kmh SE 15.0 mph24.1 kmh 30.11 in1019.6 mb 0.00 in0.0 mm 0.00 in0.0 mm 0.00 in0.0 mm
12:17 PM 71.6°F22.0°C 60.4°F15.8°C 68% 6.9 mph ESE11.1 kmh ESE 15.0 mph24.1 kmh 30.12 in1020.0 mb 0.00 in0.0 mm 0.00 in0.0 mm 0.00 in0.0 mm
12:32 PM 71.2°F21.8°C 60.1°F15.6°C 68% 3.1 mph SSW5.0 kmh SSW 10.1 mph16.3 kmh 30.12 in1020.0 mb 0.00 in0.0 mm 0.00 in0.0 mm 0.00 in0.0 mm
12:47 PM 71.1°F21.7°C 59.9°F15.5°C 68% 7.6 mph SE12.2 kmh SE 12.5 mph20.1 kmh 30.11 in1019.6 mb 0.00 in0.0 mm 0.00 in0.0 mm 0.00 in0.0 mm
01:02 PM 70.9°F21.6°C 60.3°F15.7°C 69% 5.4 mph S8.7 kmh S 10.1 mph16.3 kmh 30.11 in1019.6 mb 0.00 in0.0 mm 0.00 in0.0 mm 0.00 in0.0 mm
01:17 PM 71.1°F21.7°C 61.2°F16.2°C 71% 4.0 mph SE6.4 kmh SE 12.5 mph20.1 kmh 30.10 in1019.3 mb 0.00 in0.0 mm 0.00 in0.0 mm 0.00 in0.0 mm
01:32 PM 71.2°F21.8°C 60.6°F15.9°C 69% 3.8 mph E6.1 kmh E 12.5 mph20.1 kmh 30.10 in1019.3 mb 0.00 in0.0 mm 0.00 in0.0 mm 0.00 in0.0 mm
01:47 PM 71.8°F22.1°C 61.0°F16.1°C 69% 2.2 mph S3.5 kmh S 10.1 mph16.3 kmh 30.09 in1019.0 mb 0.00 in0.0 mm 0.00 in0.0 mm 0.00 in0.0 mm
02:03 PM 72.3°F22.4°C 60.8°F16.0°C 67% 7.2 mph SE11.6 kmh SE 15.0 mph24.1 kmh 30.10 in1019.3 mb 0.00 in0.0 mm 0.00 in0.0 mm 0.00 in0.0 mm
02:18 PM 72.5°F22.5°C 60.4°F15.8°C 66% 1.3 mph E2.1 kmh E 12.5 mph20.1 kmh 30.09 in1019.0 mb 0.00 in0.0 mm 0.00 in0.0 mm 0.00 in0.0 mm
02:33 PM 72.3°F22.4°C 59.9°F15.5°C 65% 6.9 mph SE11.1 kmh SE 15.0 mph24.1 kmh 30.10 in1019.3 mb 0.00 in0.0 mm 0.00 in0.0 mm 0.00 in0.0 mm
02:48 PM 72.1°F22.3°C 60.6°F15.9°C 67% 4.5 mph E7.2 kmh E 15.0 mph24.1 kmh 30.09 in1019.0 mb 0.00 in0.0 mm 0.00 in0.0 mm 0.00 in0.0 mm
03:03 PM 72.3°F22.4°C 59.5°F15.3°C 64% 8.7 mph S14.0 kmh S 17.4 mph28.0 kmh 30.09 in1019.0 mb 0.00 in0.0 mm 0.00 in0.0 mm 0.00 in0.0 mm
03:18 PM 72.3°F22.4°C 60.8°F16.0°C 67% 1.6 mph S2.6 kmh S 12.5 mph20.1 kmh 30.09 in1019.0 mb 0.00 in0.0 mm 0.00 in0.0 mm 0.00 in0.0 mm
03:33 PM 72.3°F22.4°C 59.9°F15.5°C 65% 7.2 mph ESE11.6 kmh ESE 12.5 mph20.1 kmh 30.09 in1019.0 mb 0.00 in0.0 mm 0.00 in0.0 mm 0.00 in0.0 mm
03:48 PM 72.3°F22.4°C 59.5°F15.3°C 64% 2.9 mph SE4.7 kmh SE 12.5 mph20.1 kmh 30.08 in1018.6 mb 0.00 in0.0 mm 0.00 in0.0 mm 0.00 in0.0 mm
04:03 PM 72.3°F22.4°C 60.3°F15.7°C 66% 4.0 mph SSW6.4 kmh SSW 10.1 mph16.3 kmh 30.08 in1018.6 mb 0.00 in0.0 mm 0.00 in0.0 mm 0.00 in0.0 mm
04:19 PM 72.3°F22.4°C 60.8°F16.0°C 67% 2.9 mph S4.7 kmh S 10.1 mph16.3 kmh 30.08 in1018.6 mb 0.00 in0.0 mm 0.00 in0.0 mm 0.00 in0.0 mm
04:34 PM 72.3°F22.4°C 60.3°F15.7°C 66% 0.9 mph SSW1.4 kmh SSW 10.1 mph16.3 kmh 30.08 in1018.6 mb 0.00 in0.0 mm 0.00 in0.0 mm 0.00 in0.0 mm
04:49 PM 72.7°F22.6°C 60.6°F15.9°C 66% 0.2 mph SW0.3 kmh SW 12.5 mph20.1 kmh 30.07 in1018.3 mb 0.00 in0.0 mm 0.00 in0.0 mm 0.00 in0.0 mm
05:05 PM 72.1°F22.3°C 61.9°F16.6°C 70% 2.2 mph SSE3.5 kmh SSE 10.1 mph16.3 kmh 30.08 in1018.6 mb 0.00 in0.0 mm 0.00 in0.0 mm 0.00 in0.0 mm
05:20 PM 70.5°F21.4°C 60.6°F15.9°C 71% 2.2 mph S3.5 kmh S 10.1 mph16.3 kmh 30.08 in1018.6 mb 0.00 in0.0 mm 0.00 in0.0 mm 0.00 in0.0 mm
05:35 PM 69.3°F20.7°C 60.3°F15.7°C 73% 6.0 mph S9.7 kmh S 10.1 mph16.3 kmh 30.07 in1018.3 mb 0.00 in0.0 mm 0.00 in0.0 mm 0.00 in0.0 mm
05:50 PM 68.5°F20.3°C 60.3°F15.7°C 75% 2.2 mph E3.5 kmh E 7.6 mph12.2 kmh 30.08 in1018.6 mb 0.00 in0.0 mm 0.00 in0.0 mm 0.00 in0.0 mm
06:05 PM 67.8°F19.9°C 59.5°F15.3°C 75% 0.7 mph SSE1.1 kmh SSE 7.6 mph12.2 kmh 30.08 in1018.6 mb 0.00 in0.0 mm 0.00 in0.0 mm 0.00 in0.0 mm
06:21 PM 67.6°F19.8°C 59.4°F15.2°C 75% 2.5 mph SSW4.0 kmh SSW 4.9 mph7.9 kmh 30.08 in1018.6 mb 0.00 in0.0 mm 0.00 in0.0 mm 0.00 in0.0 mm
06:36 PM 67.5°F19.7°C 59.5°F15.3°C 76% 1.6 mph SSE2.6 kmh SSE 4.9 mph7.9 kmh 30.08 in1018.6 mb 0.00 in0.0 mm 0.00 in0.0 mm 0.00 in0.0 mm
06:51 PM 67.1°F19.5°C 60.1°F15.6°C 78% 1.3 mph S2.1 kmh S 7.6 mph12.2 kmh 30.09 in1019.0 mb 0.00 in0.0 mm 0.00 in0.0 mm 0.00 in0.0 mm
07:06 PM 66.6°F19.2°C 59.9°F15.5°C 79% Calm Calm 4.9 mph7.9 kmh 30.09 in1019.0 mb 0.00 in0.0 mm 0.00 in0.0 mm 0.00 in0.0 mm
07:21 PM 66.2°F19.0°C 59.5°F15.3°C 79% Calm Calm 2.5 mph4.0 kmh 30.09 in1019.0 mb 0.00 in0.0 mm 0.00 in0.0 mm 0.00 in0.0 mm
07:37 PM 65.7°F18.7°C 59.4°F15.2°C 80% Calm Calm 2.5 mph4.0 kmh 30.09 in1019.0 mb 0.00 in0.0 mm 0.00 in0.0 mm 0.00 in0.0 mm
07:52 PM 65.1°F18.4°C 59.5°F15.3°C 82% 2.2 mph NNW3.5 kmh NNW 4.9 mph7.9 kmh 30.09 in1019.0 mb 0.00 in0.0 mm 0.00 in0.0 mm 0.00 in0.0 mm
08:07 PM 64.4°F18.0°C 58.8°F14.9°C 82% 4.5 mph NNW7.2 kmh NNW 7.6 mph12.2 kmh 30.09 in1019.0 mb 0.00 in0.0 mm 0.00 in0.0 mm 0.00 in0.0 mm
08:22 PM 64.0°F17.8°C 58.5°F14.7°C 82% 3.8 mph NNW6.1 kmh NNW 10.1 mph16.3 kmh 30.09 in1019.0 mb 0.00 in0.0 mm 0.00 in0.0 mm 0.00 in0.0 mm
08:37 PM 63.9°F17.7°C 58.3°F14.6°C 82% 5.4 mph NNW8.7 kmh NNW 7.6 mph12.2 kmh 30.10 in1019.3 mb 0.00 in0.0 mm 0.00 in0.0 mm 0.00 in0.0 mm
08:53 PM 63.7°F17.6°C 58.1°F14.5°C 82% 4.7 mph NNW7.6 kmh NNW 10.1 mph16.3 kmh 30.10 in1019.3 mb 0.00 in0.0 mm 0.00 in0.0 mm 0.00 in0.0 mm
09:08 PM 63.7°F17.6°C 58.5°F14.7°C 83% 4.5 mph N7.2 kmh N 7.6 mph12.2 kmh 30.10 in1019.3 mb 0.00 in0.0 mm 0.00 in0.0 mm 0.00 in0.0 mm
09:23 PM 63.5°F17.5°C 58.3°F14.6°C 83% 2.9 mph NNW4.7 kmh NNW 7.6 mph12.2 kmh 30.10 in1019.3 mb 0.00 in0.0 mm 0.00 in0.0 mm 0.00 in0.0 mm
09:38 PM 63.1°F17.3°C 57.9°F14.4°C 83% 4.0 mph NNW6.4 kmh NNW 7.6 mph12.2 kmh 30.10 in1019.3 mb 0.00 in0.0 mm 0.00 in0.0 mm 0.00 in0.0 mm
09:53 PM 63.1°F17.3°C 58.3°F14.6°C 84% 3.8 mph NNW6.1 kmh NNW 7.6 mph12.2 kmh 30.10 in1019.3 mb 0.00 in0.0 mm 0.00 in0.0 mm 0.00 in0.0 mm
10:09 PM 63.0°F17.2°C 58.1°F14.5°C 84% 2.5 mph NNW4.0 kmh NNW 7.6 mph12.2 kmh 30.10 in1019.3 mb 0.00 in0.0 mm 0.00 in0.0 mm 0.00 in0.0 mm
10:24 PM 62.8°F17.1°C 57.9°F14.4°C 84% 6.0 mph N9.7 kmh N 10.1 mph16.3 kmh 30.11 in1019.6 mb 0.00 in0.0 mm 0.00 in0.0 mm 0.00 in0.0 mm
10:39 PM 62.6°F17.0°C 58.1°F14.5°C 85% 6.0 mph NNW9.7 kmh NNW 7.6 mph12.2 kmh 30.11 in1019.6 mb 0.00 in0.0 mm 0.00 in0.0 mm 0.00 in0.0 mm
10:54 PM 62.6°F17.0°C 58.1°F14.5°C 85% 6.0 mph NNW9.7 kmh NNW 10.1 mph16.3 kmh 30.11 in1019.6 mb 0.00 in0.0 mm 0.00 in0.0 mm 0.00 in0.0 mm
11:09 PM 62.6°F17.0°C 58.1°F14.5°C 85% 3.8 mph N6.1 kmh N 10.1 mph16.3 kmh 30.11 in1019.6 mb 0.00 in0.0 mm 0.00 in0.0 mm 0.00 in0.0 mm
11:25 PM 62.4°F16.9°C 57.9°F14.4°C 85% 3.4 mph NNW5.5 kmh NNW 7.6 mph12.2 kmh 30.11 in1019.6 mb 0.00 in0.0 mm 0.00 in0.0 mm 0.00 in0.0 mm
11:40 PM 62.4°F16.9°C 57.9°F14.4°C 85% 2.9 mph NNW4.7 kmh NNW 7.6 mph12.2 kmh 30.11 in1019.6 mb 0.00 in0.0 mm 0.00 in0.0 mm 0.00 in0.0 mm
11:55 PM 62.4°F16.9°C 58.1°F14.5°C 86% 2.2 mph NNW3.5 kmh NNW 7.6 mph12.2 kmh 30.11 in1019.6 mb 0.00 in0.0 mm 0.00 in0.0 mm 0.00 in0.0 mm